Terminal Aerodrome Forecast
Issued by NWS

Home | Current Version | Previous Version | Text Only | Print | Product List | Glossary On
Versions: 1 2 3 4 5 6 7 8 9 10 11 12 13
000
FTUS45 KLKN 162300
TAFWMC
TAF
KWMC 162320Z 1700/1724 03006KT P6SM SKC
     FM170200 VRB04KT P6SM SKC
     FM172000 20009KT P6SM SCT060=

USA.gov is the U.S. government's official web portal to all federal, state and local government web resources and services.